createdAt,value
2023-01-08T00:02:46.707Z,62.75
2023-01-08T00:15:08.336Z,62.94
2023-01-08T00:17:36.343Z,63.11
2023-01-08T00:25:01.211Z,63.2
2023-01-08T00:27:29.450Z,62.77
2023-01-08T00:33:48.742Z,62.96
2023-01-08T00:38:45.327Z,63.37
2023-01-08T00:43:41.864Z,63.02
2023-01-08T00:46:10.213Z,62.98
2023-01-08T00:48:38.416Z,62.89
2023-01-08T00:53:34.957Z,63.13
2023-01-08T00:56:03.189Z,63.17
2023-01-08T01:05:56.342Z,62.86
2023-01-08T01:08:24.595Z,62.76
2023-01-08T01:13:21.104Z,62.67
2023-01-08T01:15:49.394Z,62.43
2023-01-08T01:20:45.982Z,62.66
2023-01-08T01:23:14.315Z,62.69
2023-01-08T01:25:44.457Z,62.99
2023-01-08T01:33:07.391Z,62.8
2023-01-08T01:43:00.463Z,63.17
2023-01-08T01:45:28.757Z,63.61
2023-01-08T01:52:20.756Z,63.71
2023-01-08T01:57:17.322Z,63.68
2023-01-08T02:04:42.164Z,63.87
2023-01-08T02:12:06.974Z,64.19
2023-01-08T02:19:31.779Z,64.1
2023-01-08T02:26:56.702Z,64.14
2023-01-08T02:34:21.462Z,64.14
2023-01-08T02:41:46.289Z,64.53
2023-01-08T02:51:39.523Z,64.51
2023-01-08T02:54:07.698Z,64.6
2023-01-08T02:59:04.291Z,64.6
2023-01-08T03:01:32.640Z,64.58
2023-01-08T03:06:29.078Z,64.83
2023-01-08T03:12:48.333Z,64.97
2023-01-08T03:20:13.174Z,65.21
2023-01-08T03:25:09.708Z,65.13
2023-01-08T03:30:06.252Z,65.45
2023-01-08T03:37:31.108Z,65.5
2023-01-08T03:39:59.357Z,65.5
2023-01-08T03:42:27.653Z,65.27
2023-01-08T03:44:55.941Z,65.29
2023-01-08T03:49:52.579Z,65.46
2023-01-08T03:52:20.713Z,65.42
2023-01-08T03:54:49.058Z,65.52
2023-01-08T03:57:17.306Z,65.31
2023-01-08T03:59:45.593Z,65.32
2023-01-08T04:02:14.094Z,65.44
2023-01-08T04:04:42.221Z,65.35
2023-01-08T04:09:05.904Z,65.6
2023-01-08T04:11:34.177Z,65.68
2023-01-08T04:14:02.449Z,65.57
2023-01-08T04:18:58.982Z,65.71
2023-01-08T04:21:27.289Z,65.8
2023-01-08T04:23:55.545Z,65.61
2023-01-08T04:28:52.160Z,65.79
2023-01-08T04:33:48.644Z,65.92
2023-01-08T04:38:45.198Z,65.8
2023-01-08T04:43:41.789Z,65.95
2023-01-08T04:48:38.347Z,65.74
2023-01-08T04:53:34.915Z,67.06
2023-01-08T05:00:59.743Z,68.13
2023-01-08T05:03:28.031Z,69.35
2023-01-08T05:08:24.525Z,69.65
2023-01-08T05:13:21.094Z,69.79
2023-01-08T05:18:17.666Z,69.22
2023-01-08T05:20:45.915Z,69.67
2023-01-08T05:23:14.342Z,69.5
2023-01-08T05:28:10.726Z,69.65
2023-01-08T05:32:34.524Z,69.21
2023-01-08T05:37:31.097Z,68.47
2023-01-08T05:39:59.359Z,68.22
2023-01-08T05:42:27.608Z,67.52
2023-01-08T05:47:24.145Z,67.47
2023-01-08T05:49:52.436Z,67.75
2023-01-08T05:52:20.732Z,67.67
2023-01-08T05:54:49.013Z,67.67
2023-01-08T05:59:45.542Z,67.98
2023-01-08T06:07:10.405Z,67.35
2023-01-08T06:09:38.733Z,68.32
2023-01-08T06:14:35.298Z,68.1
2023-01-08T06:19:31.744Z,68.15
2023-01-08T06:24:28.398Z,67.5
2023-01-08T06:29:24.859Z,67.67
2023-01-08T06:35:44.173Z,67.45
2023-01-08T06:40:40.685Z,66.6
2023-01-08T06:45:37.273Z,68.1
2023-01-08T06:48:05.552Z,67.23
2023-01-08T06:50:33.785Z,67.57
2023-01-08T06:53:02.090Z,67.29
2023-01-08T06:55:30.328Z,67.32
2023-01-08T06:57:58.704Z,67.42
2023-01-08T07:00:27.055Z,67.32
2023-01-08T07:05:23.462Z,67.07
2023-01-08T07:07:51.785Z,67.13
2023-01-08T07:15:16.592Z,67.03
2023-01-08T07:25:09.700Z,67.16
2023-01-08T07:32:34.466Z,66.96
2023-01-08T07:37:31.050Z,67.11
2023-01-08T07:44:55.871Z,66.97
2023-01-08T07:52:20.713Z,67.16
2023-01-08T07:59:45.531Z,67.08
2023-01-08T08:07:10.345Z,67.66
2023-01-08T08:09:38.657Z,66.96
2023-01-08T08:17:03.485Z,67.3
2023-01-08T08:24:28.311Z,66.91
2023-01-08T08:31:53.123Z,68.73
2023-01-08T08:39:17.951Z,68.71
2023-01-08T08:46:42.790Z,67.93
2023-01-08T08:54:07.598Z,67.26
2023-01-08T09:01:32.575Z,67.1
2023-01-08T09:08:57.249Z,66.99
2023-01-08T09:16:22.139Z,67.65
2023-01-08T09:23:46.889Z,67.89
2023-01-08T09:31:11.798Z,68.25
2023-01-08T09:33:39.964Z,68.37
2023-01-08T09:42:27.550Z,68.44
2023-01-08T09:44:55.866Z,68.49
2023-01-08T09:47:24.146Z,68.81
2023-01-08T09:52:20.679Z,68.18
2023-01-08T09:57:17.329Z,68.59
2023-01-08T10:02:13.824Z,68.69
2023-01-08T10:04:42.037Z,68.66
2023-01-08T10:09:38.594Z,68.09
2023-01-08T10:14:35.121Z,68.59
2023-01-08T10:21:59.991Z,68.18
2023-01-08T10:24:28.244Z,68.48
2023-01-08T10:29:24.806Z,68.25
2023-01-08T10:34:21.346Z,69.11
2023-01-08T10:40:40.640Z,68.87
2023-01-08T10:45:37.281Z,68.12
2023-01-08T10:50:33.744Z,68.79
2023-01-08T10:53:02.044Z,68.6
2023-01-08T10:55:30.298Z,69.24
2023-01-08T11:00:26.839Z,69.77
2023-01-08T11:02:55.121Z,69.4
2023-01-08T11:07:51.655Z,69.11
2023-01-08T11:10:19.960Z,68.34
2023-01-08T11:15:16.508Z,69.13
2023-01-08T11:20:13.057Z,68.54
2023-01-08T11:22:41.325Z,69.32
2023-01-08T11:25:09.591Z,70.13
2023-01-08T11:27:38.021Z,68.73
2023-01-08T11:30:06.212Z,68.62
2023-01-08T11:35:02.930Z,67.34
2023-01-08T11:42:27.601Z,69.45
2023-01-08T11:53:43.462Z,68.05
2023-01-08T11:58:39.952Z,68.19
2023-01-08T12:01:08.288Z,68.25
2023-01-08T12:06:04.830Z,68.54
2023-01-08T12:13:29.598Z,67.69
2023-01-08T12:18:26.150Z,68.41
2023-01-08T12:20:54.399Z,68.6
2023-01-08T12:25:50.955Z,68.47
2023-01-08T12:33:15.827Z,68.14
2023-01-08T12:35:44.089Z,67.39
2023-01-08T12:38:12.352Z,68.06
2023-01-08T12:43:08.893Z,67.31
2023-01-08T12:51:56.498Z,68.71
2023-01-08T12:56:53.014Z,68.06
2023-01-08T13:01:49.817Z,68.68
2023-01-08T13:06:46.119Z,68.57
2023-01-08T13:09:14.369Z,68.84
2023-01-08T13:11:42.677Z,68.44
2023-01-08T13:16:39.334Z,67.59
2023-01-08T13:19:07.483Z,68.18
2023-01-08T13:24:04.082Z,67.93
2023-01-08T13:26:32.340Z,68.13
2023-01-08T13:31:29.015Z,67.82
2023-01-08T13:36:25.397Z,67.72
2023-01-08T13:38:53.709Z,67.78
2023-01-08T13:41:21.988Z,67.56
2023-01-08T13:45:45.841Z,67.79
2023-01-08T13:50:42.417Z,68.25
2023-01-08T13:55:38.895Z,68.49
2023-01-08T14:00:35.418Z,68.57
2023-01-08T14:05:31.983Z,68.46
2023-01-08T14:10:28.526Z,68.36
2023-01-08T14:15:25.070Z,67.75
2023-01-08T14:20:21.614Z,67.32
2023-01-08T14:25:18.166Z,67.04
2023-01-08T14:30:14.863Z,66.35
2023-01-08T14:35:11.264Z,66.05
2023-01-08T14:37:39.672Z,66.04
2023-01-08T14:40:07.840Z,65.91
2023-01-08T14:42:36.147Z,65.64
2023-01-08T14:45:04.472Z,65.66
2023-01-08T14:47:32.624Z,65.63
2023-01-08T14:50:00.994Z,65.64
2023-01-08T14:54:24.703Z,65.41
2023-01-08T14:56:52.963Z,65.37
2023-01-08T14:59:21.230Z,65.58
2023-01-08T15:01:49.670Z,65.74
2023-01-08T15:04:17.810Z,65.85
2023-01-08T15:06:46.095Z,66.37
2023-01-08T15:09:14.352Z,66.39
2023-01-08T15:14:10.908Z,66.55
2023-01-08T15:16:39.306Z,66.37
2023-01-08T15:19:07.446Z,66.4
2023-01-08T15:21:35.751Z,66.54
2023-01-08T15:24:04.067Z,66.7
2023-01-08T15:26:32.304Z,66.73
2023-01-08T15:29:00.555Z,67.03
2023-01-08T15:33:57.160Z,66.96
2023-01-08T15:36:25.374Z,66.5
2023-01-08T15:38:53.650Z,66.47
2023-01-08T15:41:21.988Z,66.65
2023-01-08T15:43:51.530Z,66.7
2023-01-08T15:48:46.756Z,66.64
2023-01-08T15:53:43.395Z,66.66
2023-01-08T15:56:11.582Z,66.71
2023-01-08T15:58:39.885Z,66.8
2023-01-08T16:01:08.269Z,66.81
2023-01-08T16:03:36.413Z,67
2023-01-08T16:08:00.216Z,67.42
2023-01-08T16:12:56.813Z,67.29
2023-01-08T16:15:25.040Z,67.47
2023-01-08T16:20:21.570Z,67.29
2023-01-08T16:25:18.158Z,67.12
2023-01-08T16:30:14.772Z,67.27
2023-01-08T16:35:11.274Z,67.49
2023-01-08T16:40:07.757Z,67.12
2023-01-08T16:45:04.411Z,67.37
2023-01-08T16:52:29.215Z,67.29
2023-01-08T16:54:57.481Z,67.26
2023-01-08T16:59:54.008Z,67.39
2023-01-08T17:04:50.539Z,67.11
2023-01-08T17:11:59.016Z,67.23
2023-01-08T17:14:27.273Z,67
2023-01-08T17:16:55.540Z,67.11
2023-01-08T17:21:52.102Z,67.09
2023-01-08T17:24:20.466Z,66.99
2023-01-08T17:26:48.619Z,67.01
2023-01-08T17:31:45.319Z,66.95
2023-01-08T17:34:13.529Z,66.89
2023-01-08T17:36:41.784Z,66.83
2023-01-08T17:39:10.023Z,66.95
2023-01-08T17:41:38.327Z,66.99
2023-01-08T17:46:34.860Z,67.03
2023-01-08T17:51:31.413Z,67.06
2023-01-08T17:53:59.749Z,66.94
2023-01-08T18:01:24.662Z,66.94
2023-01-08T18:03:52.776Z,67.03
2023-01-08T18:11:17.648Z,67.56
2023-01-08T18:16:14.212Z,67.37
2023-01-08T18:18:42.409Z,67.3
2023-01-08T18:23:06.222Z,67.31
2023-01-08T18:30:31.059Z,67.26
2023-01-08T18:32:59.418Z,67.37
2023-01-08T18:37:55.856Z,67.45
2023-01-08T18:45:20.811Z,67.43
2023-01-08T18:50:17.283Z,67.39
2023-01-08T18:52:45.557Z,67.5
2023-01-08T18:57:42.104Z,68.07
2023-01-08T19:02:38.733Z,67.57
2023-01-08T19:10:03.567Z,67.55
2023-01-08T19:12:31.741Z,67.37
2023-01-08T19:17:28.312Z,67.58
2023-01-08T19:22:24.812Z,67.37
2023-01-08T19:24:53.196Z,67.42
2023-01-08T19:29:49.688Z,68.02
2023-01-08T19:34:46.251Z,67.71
2023-01-08T19:37:14.453Z,67.91
2023-01-08T19:39:42.749Z,67.52
2023-01-08T19:42:12.351Z,67.6
2023-01-08T19:44:39.301Z,67.53
2023-01-08T19:49:03.121Z,67.47
2023-01-08T19:51:31.463Z,67.53
2023-01-08T19:53:59.698Z,67.46
2023-01-08T19:58:56.205Z,67.5
2023-01-08T20:01:24.679Z,67.65
2023-01-08T20:08:49.323Z,67.58
2023-01-08T20:13:45.847Z,67.56
2023-01-08T20:16:14.211Z,67.45
2023-01-08T20:21:10.683Z,67.42
2023-01-08T20:28:35.645Z,67.33
2023-01-08T20:36:00.569Z,67.46
2023-01-08T20:40:56.902Z,67.42
2023-01-08T20:48:21.739Z,67.39
2023-01-08T20:50:50.016Z,67.64
2023-01-08T20:53:18.302Z,67.67
2023-01-08T20:55:46.598Z,67.79
2023-01-08T20:58:14.799Z,67.85
2023-01-08T21:00:43.140Z,67.85
2023-01-08T21:03:11.371Z,67.77
2023-01-08T21:10:03.437Z,67.78
2023-01-08T21:12:31.723Z,67.77
2023-01-08T21:14:59.971Z,67.8
2023-01-08T21:17:28.268Z,67.74
2023-01-08T21:19:56.533Z,67.86
2023-01-08T21:22:24.787Z,67.87
2023-01-08T21:27:21.369Z,67.94
2023-01-08T21:29:49.688Z,67.72
2023-01-08T21:34:46.195Z,67.77
2023-01-08T21:37:14.461Z,67.89
2023-01-08T21:39:42.714Z,67.88
2023-01-08T21:42:10.997Z,67.8
2023-01-08T21:47:07.579Z,67.94
2023-01-08T21:49:35.942Z,67.99
2023-01-08T21:52:04.102Z,68.03
2023-01-08T21:54:32.403Z,68
2023-01-08T21:59:28.952Z,67.99
2023-01-08T22:01:57.314Z,67.98
2023-01-08T22:06:53.745Z,68.03
2023-01-08T22:11:17.587Z,67.98
2023-01-08T22:13:45.846Z,67.98
2023-01-08T22:18:42.366Z,67.85
2023-01-08T22:26:07.251Z,67.87
2023-01-08T22:28:35.524Z,68
2023-01-08T22:36:00.278Z,67.88
2023-01-08T22:38:28.653Z,67.76
2023-01-08T22:45:53.567Z,67.59
2023-01-08T22:48:21.684Z,67.9
2023-01-08T22:55:46.534Z,67.52
2023-01-08T22:58:14.799Z,68.1
2023-01-08T23:05:39.606Z,67.7
2023-01-08T23:08:07.913Z,68.05
2023-01-08T23:10:36.129Z,67.99
2023-01-08T23:13:04.470Z,68.37
2023-01-08T23:15:32.768Z,68.81
2023-01-08T23:18:00.974Z,68.43
2023-01-08T23:24:53.064Z,68.45
2023-01-08T23:27:21.302Z,68.89
2023-01-08T23:29:49.614Z,68.52
2023-01-08T23:32:17.872Z,68.25
2023-01-08T23:34:46.157Z,68.86
2023-01-08T23:37:14.431Z,69.35
2023-01-08T23:39:42.715Z,70.46
2023-01-08T23:44:39.281Z,70.17
2023-01-08T23:47:07.542Z,69.32
2023-01-08T23:49:35.811Z,69.65
2023-01-08T23:52:04.071Z,70.24
2023-01-08T23:54:32.352Z,69.51
2023-01-08T23:57:00.668Z,69.91
2023-01-08T23:59:28.936Z,69.3
